createdAt,value
2022-11-16T00:02:19.803Z,1.70
2022-11-16T00:04:49.119Z,1.80
2022-11-16T00:07:18.800Z,2.70
2022-11-16T00:09:48.936Z,2.00
2022-11-16T00:12:18.271Z,2.20
2022-11-16T00:14:47.564Z,1.80
2022-11-16T00:17:19.741Z,1.50
2022-11-16T00:19:49.902Z,1.40
2022-11-16T00:22:19.232Z,1.80
2022-11-16T00:24:48.899Z,1.40
2022-11-16T00:27:18.090Z,1.70
2022-11-16T00:29:47.392Z,1.70
2022-11-16T00:32:16.571Z,1.40
2022-11-16T00:34:46.126Z,1.70
2022-11-16T00:37:15.597Z,1.40
2022-11-16T00:39:45.050Z,1.50
2022-11-16T00:42:14.217Z,1.90
2022-11-16T00:44:43.270Z,1.80
2022-11-16T00:47:12.483Z,1.60
2022-11-16T00:49:41.776Z,1.50
2022-11-16T00:52:10.998Z,1.60
2022-11-16T00:54:40.319Z,1.90
2022-11-16T00:57:09.831Z,1.40
2022-11-16T00:59:39.204Z,1.70
2022-11-16T01:02:08.566Z,1.90
2022-11-16T01:04:37.934Z,2.00
2022-11-16T01:07:07.180Z,1.80
2022-11-16T01:09:36.929Z,1.70
2022-11-16T01:12:13.864Z,2.30
2022-11-16T01:14:49.121Z,1.80
2022-11-16T01:17:19.653Z,1.70
2022-11-16T01:19:48.735Z,1.70
2022-11-16T01:22:18.382Z,1.80
2022-11-16T01:24:50.735Z,1.80
2022-11-16T01:27:20.311Z,1.90
2022-11-16T01:29:49.466Z,2.00
2022-11-16T01:32:18.730Z,2.20
2022-11-16T01:34:48.114Z,1.40
2022-11-16T01:37:18.100Z,1.50
2022-11-16T01:39:47.967Z,1.50
2022-11-16T01:42:27.315Z,2.40
2022-11-16T01:45:40.607Z,1.90
2022-11-16T01:48:12.879Z,1.80
2022-11-16T01:50:43.581Z,1.30
2022-11-16T01:53:15.675Z,1.70
2022-11-16T01:55:48.090Z,2.20
2022-11-16T01:58:24.277Z,1.80
2022-11-16T02:00:53.750Z,2.00
2022-11-16T02:03:23.624Z,2.00
2022-11-16T02:06:30.197Z,1.70
2022-11-16T02:09:42.349Z,2.00
2022-11-16T02:12:40.094Z,2.40
2022-11-16T02:15:33.671Z,2.30
2022-11-16T02:18:26.104Z,2.10
2022-11-16T02:21:37.631Z,2.20
2022-11-16T02:24:49.222Z,1.70
2022-11-16T02:27:36.634Z,1.60
2022-11-16T02:30:08.504Z,1.60
2022-11-16T02:33:01.939Z,2.20
2022-11-16T02:35:45.292Z,2.30
2022-11-16T02:38:26.587Z,2.20
2022-11-16T02:41:06.690Z,2.30
2022-11-16T02:43:50.542Z,2.30
2022-11-16T02:46:32.856Z,1.80
2022-11-16T02:49:08.632Z,1.90
2022-11-16T02:51:41.237Z,2.00
2022-11-16T02:54:19.572Z,1.80
2022-11-16T02:57:20.661Z,1.60
2022-11-16T02:59:56.280Z,1.70
2022-11-16T03:02:34.088Z,1.80
2022-11-16T03:05:34.912Z,1.40
2022-11-16T03:08:18.410Z,1.70
2022-11-16T03:11:13.293Z,1.90
2022-11-16T03:13:44.946Z,1.70
2022-11-16T03:16:45.644Z,1.90
2022-11-16T03:19:24.105Z,2.30
2022-11-16T03:22:24.512Z,2.00
2022-11-16T03:24:54.560Z,2.00
2022-11-16T03:28:04.894Z,2.10
2022-11-16T03:31:03.819Z,1.90
2022-11-16T03:33:51.647Z,1.80
2022-11-16T03:36:25.159Z,2.00
2022-11-16T03:38:57.094Z,1.80
2022-11-16T03:41:29.562Z,1.80
2022-11-16T03:44:00.383Z,2.10
2022-11-16T03:46:30.546Z,1.60
2022-11-16T03:49:02.426Z,1.80
2022-11-16T03:51:31.696Z,1.50
2022-11-16T03:54:01.275Z,1.70
2022-11-16T03:56:31.630Z,1.30
2022-11-16T03:59:01.354Z,2.20
2022-11-16T04:01:30.791Z,2.20
2022-11-16T04:04:00.307Z,2.20
2022-11-16T04:06:48.309Z,1.80
2022-11-16T04:09:35.935Z,2.20
2022-11-16T04:12:23.688Z,1.60
2022-11-16T04:15:11.516Z,2.00
2022-11-16T04:17:59.457Z,1.90
2022-11-16T04:20:47.384Z,2.00
2022-11-16T04:23:36.979Z,2.10
2022-11-16T04:26:13.448Z,1.60
2022-11-16T04:28:43.573Z,1.70
2022-11-16T04:31:31.306Z,1.80
2022-11-16T04:34:19.334Z,1.80
2022-11-16T04:37:07.144Z,2.00
2022-11-16T04:39:36.444Z,1.70
2022-11-16T04:42:15.777Z,2.30
2022-11-16T04:45:03.172Z,1.50
2022-11-16T04:47:32.615Z,1.70
2022-11-16T04:50:01.995Z,1.80
2022-11-16T04:52:31.466Z,1.70
2022-11-16T04:55:00.636Z,2.20
2022-11-16T04:57:29.936Z,1.60
2022-11-16T05:00:00.146Z,1.60
2022-11-16T05:02:29.699Z,2.00
2022-11-16T05:04:59.011Z,1.80
2022-11-16T05:07:28.572Z,1.90
2022-11-16T05:09:58.024Z,1.70
2022-11-16T05:12:29.706Z,1.70
2022-11-16T05:14:59.590Z,1.50
2022-11-16T05:17:30.217Z,1.80
2022-11-16T05:20:19.060Z,1.90
2022-11-16T05:22:56.696Z,1.70
2022-11-16T05:25:28.555Z,1.50
2022-11-16T05:28:04.204Z,1.50
2022-11-16T05:30:33.346Z,1.90
2022-11-16T05:33:07.438Z,1.80
2022-11-16T05:35:36.865Z,1.90
2022-11-16T05:38:08.458Z,1.40
2022-11-16T05:40:37.625Z,1.50
2022-11-16T05:43:06.821Z,1.70
2022-11-16T05:45:36.012Z,2.10
2022-11-16T05:48:05.565Z,1.80
2022-11-16T05:50:38.559Z,1.90
2022-11-16T05:53:10.867Z,1.70
2022-11-16T05:55:40.161Z,1.70
2022-11-16T05:58:09.396Z,1.50
2022-11-16T06:00:40.506Z,2.10
2022-11-16T06:03:09.799Z,1.90
2022-11-16T06:05:40.813Z,1.90
2022-11-16T06:08:10.449Z,1.80
2022-11-16T06:10:39.880Z,1.70
2022-11-16T06:13:09.195Z,1.70
2022-11-16T06:15:41.856Z,1.50
2022-11-16T06:18:11.733Z,1.90
2022-11-16T06:20:42.207Z,1.80
2022-11-16T06:23:11.568Z,1.60
2022-11-16T06:25:41.769Z,1.60
2022-11-16T06:28:11.499Z,1.60
2022-11-16T06:30:42.245Z,1.70
2022-11-16T06:33:11.628Z,1.90
2022-11-16T06:35:40.967Z,2.00
2022-11-16T06:38:10.201Z,1.70
2022-11-16T06:40:40.886Z,1.80
2022-11-16T06:43:10.166Z,1.40
2022-11-16T06:45:40.463Z,1.70
2022-11-16T06:48:10.564Z,1.60
2022-11-16T06:50:40.061Z,1.90
2022-11-16T06:55:55.488Z,1.50
2022-11-16T06:58:24.790Z,1.70
2022-11-16T07:00:53.955Z,1.80
2022-11-16T07:03:23.230Z,1.60
2022-11-16T07:05:52.545Z,1.50
2022-11-16T07:08:21.926Z,1.90
2022-11-16T07:10:51.235Z,2.00
2022-11-16T07:13:20.366Z,1.70
2022-11-16T07:15:49.801Z,1.90
2022-11-16T07:18:19.317Z,1.70
2022-11-16T07:20:48.722Z,1.40
2022-11-16T07:23:17.933Z,2.00
2022-11-16T07:25:48.365Z,2.10
2022-11-16T07:28:17.931Z,1.50
2022-11-16T07:30:47.965Z,1.50
2022-11-16T07:33:18.350Z,1.60
2022-11-16T07:35:47.522Z,2.00
2022-11-16T07:38:18.173Z,2.00
2022-11-16T07:40:47.656Z,1.90
2022-11-16T07:43:16.929Z,1.50
2022-11-16T07:45:46.205Z,1.60
2022-11-16T07:48:15.365Z,1.90
2022-11-16T07:50:44.731Z,2.00
2022-11-16T07:53:13.767Z,1.80
2022-11-16T07:55:43.032Z,1.70
2022-11-16T07:58:13.332Z,1.60
2022-11-16T08:00:42.670Z,2.20
2022-11-16T08:03:12.065Z,2.20
2022-11-16T08:05:41.597Z,1.90
2022-11-16T08:08:11.192Z,1.70
2022-11-16T08:10:40.763Z,1.70
2022-11-16T08:13:10.055Z,1.90
2022-11-16T08:15:39.297Z,2.00
2022-11-16T08:18:08.801Z,1.60
2022-11-16T08:20:38.093Z,1.70
2022-11-16T08:23:07.291Z,1.60
2022-11-16T08:25:36.568Z,1.80
2022-11-16T08:28:05.980Z,2.30
2022-11-16T08:30:35.498Z,1.60
2022-11-16T08:33:04.653Z,1.90
2022-11-16T08:35:35.011Z,1.60
2022-11-16T08:38:04.672Z,1.80
2022-11-16T08:40:34.551Z,1.90
2022-11-16T08:43:03.978Z,1.70
2022-11-16T08:45:35.171Z,2.10
2022-11-16T08:48:04.816Z,1.80
2022-11-16T08:50:55.539Z,1.50
2022-11-16T08:53:24.186Z,1.80
2022-11-16T08:55:53.480Z,1.60
2022-11-16T08:58:22.562Z,1.80
2022-11-16T09:00:52.552Z,1.90
2022-11-16T09:03:21.800Z,2.00
2022-11-16T09:05:51.109Z,2.00
2022-11-16T09:08:20.357Z,1.70
2022-11-16T09:10:49.726Z,1.40
2022-11-16T09:13:19.018Z,1.60
2022-11-16T09:15:48.313Z,2.00
2022-11-16T09:18:17.742Z,1.60
2022-11-16T09:20:46.847Z,1.70
2022-11-16T09:23:19.732Z,1.70
2022-11-16T09:25:55.175Z,1.60
2022-11-16T09:28:25.055Z,1.70
2022-11-16T09:30:54.289Z,1.70
2022-11-16T09:33:23.548Z,1.70
2022-11-16T09:35:52.659Z,1.60
2022-11-16T09:38:40.610Z,1.60
2022-11-16T09:41:16.915Z,1.90
2022-11-16T09:43:54.714Z,1.50
2022-11-16T09:46:59.859Z,1.50
2022-11-16T09:49:41.168Z,1.70
2022-11-16T09:52:45.674Z,1.70
2022-11-16T09:55:33.639Z,1.50
2022-11-16T09:58:14.917Z,1.80
2022-11-16T10:00:52.620Z,1.90
2022-11-16T10:03:21.886Z,1.50
2022-11-16T10:06:10.813Z,1.90
2022-11-16T10:08:51.220Z,1.90
2022-11-16T10:11:49.907Z,1.70
2022-11-16T10:14:45.510Z,1.40
2022-11-16T10:17:59.660Z,1.50
2022-11-16T10:30:19.744Z,1.90
2022-11-16T10:33:06.795Z,1.70
2022-11-16T10:35:48.072Z,1.70
2022-11-16T10:38:23.863Z,1.40
2022-11-16T10:41:05.105Z,1.90
2022-11-16T10:43:35.284Z,1.90
2022-11-16T10:46:21.456Z,1.50
2022-11-16T10:49:23.444Z,1.80
2022-11-16T10:51:52.751Z,1.50
2022-11-16T10:54:22.136Z,2.10
2022-11-16T10:57:05.907Z,1.80
2022-11-16T10:59:45.834Z,1.60
2022-11-16T11:02:36.915Z,2.00
2022-11-16T11:05:22.538Z,1.40
2022-11-16T11:08:25.260Z,1.70
2022-11-16T11:11:25.776Z,1.70
2022-11-16T11:14:13.817Z,1.20
2022-11-16T11:16:43.682Z,1.10
2022-11-16T11:19:31.208Z,1.50
2022-11-16T11:22:04.111Z,1.80
2022-11-16T11:24:49.272Z,1.70
2022-11-16T11:27:27.767Z,1.80
2022-11-16T11:29:59.815Z,1.70
2022-11-16T11:32:41.181Z,1.70
2022-11-16T11:35:30.963Z,2.00
2022-11-16T11:38:08.031Z,1.40
2022-11-16T11:40:38.080Z,1.70
2022-11-16T11:43:23.098Z,2.00
2022-11-16T11:46:47.281Z,1.90
2022-11-16T11:49:42.965Z,1.60
2022-11-16T11:52:32.422Z,1.80
2022-11-16T11:55:03.991Z,2.10
2022-11-16T11:57:44.300Z,1.50
2022-11-16T12:00:19.252Z,1.50
2022-11-16T12:03:04.049Z,2.00
2022-11-16T12:06:20.143Z,1.60
2022-11-16T12:09:38.067Z,1.30
2022-11-16T12:12:39.571Z,1.50
2022-11-16T12:15:31.925Z,1.30
2022-11-16T12:18:44.738Z,2.00
2022-11-16T12:21:30.716Z,1.70
2022-11-16T12:25:04.252Z,2.00
2022-11-16T12:27:53.229Z,1.70
2022-11-16T12:30:25.665Z,2.00
2022-11-16T12:33:25.994Z,1.80
2022-11-16T12:36:24.754Z,1.80
2022-11-16T12:39:30.655Z,1.50
2022-11-16T12:42:38.625Z,1.70
2022-11-16T12:45:19.826Z,1.60
2022-11-16T12:48:27.903Z,1.70
2022-11-16T12:51:30.486Z,2.20
2022-11-16T12:55:23.994Z,1.60
2022-11-16T12:58:33.094Z,1.50
2022-11-16T13:01:27.122Z,1.50
2022-11-16T13:04:02.345Z,1.30
2022-11-16T13:06:58.509Z,1.40
2022-11-16T13:09:38.682Z,1.70
2022-11-16T13:12:16.362Z,1.70
2022-11-16T13:14:57.598Z,1.80
2022-11-16T13:17:40.523Z,1.30
2022-11-16T13:20:27.691Z,1.70
2022-11-16T13:23:33.110Z,1.60
2022-11-16T13:26:25.408Z,1.60
2022-11-16T13:29:12.991Z,1.10
2022-11-16T13:32:18.754Z,1.00
2022-11-16T13:34:48.664Z,1.50
2022-11-16T13:37:39.277Z,1.80
2022-11-16T13:40:10.706Z,1.60
2022-11-16T13:43:18.395Z,1.80
2022-11-16T13:46:02.667Z,1.80
2022-11-16T13:48:39.408Z,1.70
2022-11-16T13:51:17.921Z,2.00
2022-11-16T13:56:52.891Z,2.10
2022-11-16T13:59:29.842Z,1.70
2022-11-16T14:02:41.765Z,2.00
2022-11-16T14:05:35.849Z,1.70
2022-11-16T14:08:48.453Z,1.60
2022-11-16T14:11:41.714Z,1.90
2022-11-16T14:14:15.123Z,1.40
2022-11-16T14:16:51.978Z,1.80
2022-11-16T14:19:48.570Z,1.70
2022-11-16T14:23:02.574Z,1.60
2022-11-16T14:25:54.188Z,1.70
2022-11-16T14:28:35.910Z,1.80
2022-11-16T14:31:25.290Z,1.60
2022-11-16T14:33:59.707Z,1.60
2022-11-16T14:36:49.488Z,1.50
2022-11-16T14:39:33.575Z,1.60
2022-11-16T14:42:08.497Z,2.20
2022-11-16T14:44:41.040Z,1.90
2022-11-16T14:47:29.961Z,2.00
2022-11-16T14:50:01.116Z,2.20
2022-11-16T14:52:39.143Z,1.90
2022-11-16T14:55:24.070Z,1.80
2022-11-16T14:58:09.497Z,1.90
2022-11-16T15:00:40.320Z,1.60
2022-11-16T15:03:13.933Z,1.40
2022-11-16T15:05:45.760Z,1.80
2022-11-16T15:08:23.562Z,2.20
2022-11-16T15:10:54.180Z,1.90
2022-11-16T15:13:28.074Z,2.20
2022-11-16T15:16:21.930Z,2.10
2022-11-16T15:19:03.655Z,1.70
2022-11-16T15:21:32.758Z,1.70
2022-11-16T15:24:28.759Z,2.00
2022-11-16T15:26:51.671Z,2.10
2022-11-16T15:29:23.959Z,1.80
2022-11-16T15:31:53.891Z,1.90
2022-11-16T15:34:23.274Z,1.80
2022-11-16T15:36:52.562Z,2.10
2022-11-16T15:39:25.436Z,2.20
2022-11-16T15:42:02.105Z,1.50
2022-11-16T15:44:34.648Z,1.40
2022-11-16T15:47:05.812Z,1.50
2022-11-16T15:49:40.009Z,1.80
2022-11-16T15:52:09.543Z,1.80
2022-11-16T15:54:58.375Z,1.80
2022-11-16T15:57:27.506Z,2.00
2022-11-16T15:59:59.140Z,1.60
2022-11-16T16:02:33.187Z,2.00
2022-11-16T16:05:02.509Z,2.00
2022-11-16T16:07:43.721Z,2.00
2022-11-16T16:10:22.081Z,1.60
2022-11-16T16:12:57.540Z,1.60
2022-11-16T16:15:37.789Z,1.80
2022-11-16T16:18:40.736Z,1.90
2022-11-16T16:21:15.541Z,1.90
2022-11-16T16:23:57.674Z,2.10
2022-11-16T16:26:27.167Z,1.80
2022-11-16T16:29:10.986Z,1.80
2022-11-16T16:31:40.616Z,1.70
2022-11-16T16:34:13.559Z,2.10
2022-11-16T16:36:43.037Z,1.90
2022-11-16T16:39:13.466Z,1.80
2022-11-16T16:41:42.795Z,2.00
2022-11-16T16:44:17.942Z,2.10
2022-11-16T16:46:47.518Z,1.90
2022-11-16T16:49:20.321Z,2.40
2022-11-16T16:51:50.688Z,1.70
2022-11-16T16:54:20.797Z,2.20
2022-11-16T16:56:51.617Z,2.60
2022-11-16T16:59:21.567Z,2.10
2022-11-16T17:01:57.450Z,1.80
2022-11-16T17:04:28.395Z,2.40
2022-11-16T17:07:01.339Z,2.10
2022-11-16T17:09:35.190Z,2.10
2022-11-16T17:12:06.818Z,1.70
2022-11-16T17:14:37.210Z,1.60
2022-11-16T17:17:07.675Z,1.90
2022-11-16T17:19:38.413Z,1.80
2022-11-16T17:22:12.383Z,2.50
2022-11-16T17:24:42.578Z,1.80
2022-11-16T17:27:12.725Z,2.00
2022-11-16T17:29:44.271Z,2.20
2022-11-16T17:32:17.819Z,1.90
2022-11-16T17:34:47.906Z,2.30
2022-11-16T17:37:26.891Z,2.30
2022-11-16T17:39:58.107Z,2.30
2022-11-16T17:42:28.059Z,1.60
2022-11-16T17:45:01.681Z,1.50
2022-11-16T17:47:41.003Z,2.30
2022-11-16T17:50:11.724Z,2.00
2022-11-16T17:52:42.247Z,2.00
2022-11-16T17:55:16.334Z,2.20
2022-11-16T17:57:47.125Z,2.30
2022-11-16T18:00:18.871Z,1.90
2022-11-16T18:02:49.002Z,2.00
2022-11-16T18:05:19.152Z,2.40
2022-11-16T18:07:48.692Z,1.90
2022-11-16T18:10:19.491Z,2.10
2022-11-16T18:12:49.134Z,2.10
2022-11-16T18:15:37.831Z,2.00
2022-11-16T18:18:08.718Z,1.80
2022-11-16T18:20:39.332Z,1.90
2022-11-16T18:23:08.886Z,2.10
2022-11-16T18:25:38.110Z,2.00
2022-11-16T18:28:07.755Z,1.70
2022-11-16T18:30:37.027Z,2.10
2022-11-16T18:33:06.413Z,2.00
2022-11-16T18:35:36.047Z,2.10
2022-11-16T18:38:07.979Z,2.00
2022-11-16T18:40:37.155Z,1.80
2022-11-16T18:43:06.530Z,2.00
2022-11-16T18:45:35.785Z,2.00
2022-11-16T18:48:05.397Z,2.20
2022-11-16T18:50:35.821Z,2.00
2022-11-16T18:53:05.473Z,1.90
2022-11-16T18:55:34.714Z,2.00
2022-11-16T18:58:09.487Z,1.80
2022-11-16T19:00:52.203Z,2.00
2022-11-16T19:03:22.123Z,2.40
2022-11-16T19:06:08.610Z,2.10
2022-11-16T19:08:40.455Z,1.70
2022-11-16T19:11:16.989Z,1.80
2022-11-16T19:13:46.789Z,2.10
2022-11-16T19:16:16.176Z,2.10
2022-11-16T19:18:45.459Z,1.80
2022-11-16T19:21:19.500Z,2.00
2022-11-16T19:23:52.860Z,2.20
2022-11-16T19:26:25.970Z,2.00
2022-11-16T19:28:56.595Z,2.10
2022-11-16T19:31:31.845Z,2.20
2022-11-16T19:34:08.285Z,2.00
2022-11-16T19:36:38.667Z,2.10
2022-11-16T19:39:07.947Z,2.20
2022-11-16T19:41:37.459Z,1.80
2022-11-16T19:44:06.833Z,2.60
2022-11-16T19:46:38.528Z,2.40
2022-11-16T19:49:14.487Z,1.90
2022-11-16T19:51:46.459Z,2.20
2022-11-16T19:54:16.229Z,2.10
2022-11-16T19:56:51.979Z,2.30
2022-11-16T19:59:24.336Z,1.80
2022-11-16T20:01:53.593Z,2.60
2022-11-16T20:04:23.082Z,2.60
2022-11-16T20:06:52.286Z,2.60
2022-11-16T20:09:21.310Z,3.30
2022-11-16T20:11:50.749Z,2.90
2022-11-16T20:14:20.225Z,2.40
2022-11-16T20:16:51.455Z,2.50
2022-11-16T20:19:21.913Z,2.90
2022-11-16T20:21:51.196Z,2.80
2022-11-16T20:24:20.473Z,2.30
2022-11-16T20:26:50.888Z,2.40
2022-11-16T20:29:21.513Z,2.50
2022-11-16T20:31:50.979Z,2.80
2022-11-16T20:34:21.793Z,2.30
2022-11-16T20:36:51.947Z,2.90
2022-11-16T20:39:22.853Z,2.70
2022-11-16T20:41:52.200Z,2.50
2022-11-16T20:44:23.303Z,2.60
2022-11-16T20:46:55.557Z,2.50
2022-11-16T20:49:25.001Z,2.60
2022-11-16T20:51:54.296Z,2.30
2022-11-16T20:54:25.474Z,2.80
2022-11-16T20:56:54.797Z,2.40
2022-11-16T20:59:24.099Z,2.30
2022-11-16T21:01:56.380Z,2.50
2022-11-16T21:04:25.591Z,2.30
2022-11-16T21:06:54.698Z,2.00
2022-11-16T21:09:24.322Z,2.20
2022-11-16T21:12:12.080Z,2.30
2022-11-16T21:14:41.384Z,2.10
2022-11-16T21:17:10.893Z,1.60
2022-11-16T21:19:49.869Z,2.00
2022-11-16T21:22:32.742Z,2.00
2022-11-16T21:25:01.994Z,2.10
2022-11-16T21:27:31.008Z,2.00
2022-11-16T21:30:00.104Z,1.80
2022-11-16T21:32:29.856Z,2.20
2022-11-16T21:34:58.870Z,2.10
2022-11-16T21:37:28.124Z,2.10
2022-11-16T21:39:57.235Z,1.90
2022-11-16T21:42:26.522Z,2.40
2022-11-16T21:44:55.731Z,2.30
2022-11-16T21:47:24.899Z,1.70
2022-11-16T21:50:24.853Z,2.10
2022-11-16T21:52:43.886Z,2.20
2022-11-16T21:55:13.085Z,2.00
2022-11-16T21:57:42.192Z,2.30
2022-11-16T22:00:16.151Z,2.30
2022-11-16T22:02:45.124Z,1.90
2022-11-16T22:05:32.488Z,1.90
2022-11-16T22:08:08.543Z,1.80
2022-11-16T22:10:37.691Z,2.60
2022-11-16T22:13:07.834Z,2.50
2022-11-16T22:15:36.935Z,2.20
2022-11-16T22:18:06.310Z,2.50
2022-11-16T22:20:38.133Z,3.40
2022-11-16T22:23:07.609Z,2.10
2022-11-16T22:25:38.466Z,3.00
2022-11-16T22:28:24.956Z,2.60
2022-11-16T22:31:06.116Z,3.00
2022-11-16T22:33:36.229Z,2.70
2022-11-16T22:36:06.276Z,3.00
2022-11-16T22:38:36.354Z,2.80
2022-11-16T22:41:06.081Z,2.80
2022-11-16T22:43:36.936Z,2.40
2022-11-16T22:46:07.949Z,2.30
2022-11-16T22:48:43.176Z,2.50
2022-11-16T22:51:27.285Z,2.50
2022-11-16T22:54:03.314Z,2.80
2022-11-16T22:56:35.099Z,3.00
2022-11-16T22:59:04.315Z,3.70
2022-11-16T23:01:34.152Z,2.90
2022-11-16T23:04:03.414Z,3.70
2022-11-16T23:06:32.983Z,4.10
2022-11-16T23:09:02.175Z,4.30
2022-11-16T23:11:49.449Z,4.10
2022-11-16T23:14:37.828Z,4.10
2022-11-16T23:17:08.634Z,3.90
2022-11-16T23:19:55.862Z,4.00
2022-11-16T23:22:43.312Z,3.70
2022-11-16T23:25:32.084Z,4.30
2022-11-16T23:28:11.165Z,3.90
2022-11-16T23:30:41.141Z,4.30
2022-11-16T23:33:12.217Z,4.50
2022-11-16T23:35:41.236Z,4.80
2022-11-16T23:38:11.017Z,4.60
2022-11-16T23:40:42.019Z,4.70
2022-11-16T23:43:31.118Z,4.90
2022-11-16T23:46:00.102Z,5.00
2022-11-16T23:48:29.273Z,4.70
2022-11-16T23:50:58.289Z,4.30
2022-11-16T23:53:27.507Z,5.00
2022-11-16T23:56:05.734Z,4.90
2022-11-16T23:58:35.474Z,3.90
